Terminal Aerodrome Forecast
Issued by NWS

Home | Current Version | Previous Version | Text Only | Print | Product List | Glossary On
Versions: 1 2 3 4 5 6 7 8 9 10 11 12 13 14 15 16 17 18 19 20 21 22 23
792
FTUS45 KPSR 281510 AAA
TAFPHX
TAF AMD
KPHX 281510Z 2815/2912 25011KT P6SM FEW150 BKN250
     FM281700 28015G21KT P6SM FEW070 BKN100
     FM282100 29030G40KT 5SM BLDU FEW250
     FM290300 32025G32KT P6SM SKC
     FM290700 30011KT P6SM SKC=

USA.gov is the U.S. government's official web portal to all federal, state and local government web resources and services.